createdAt,value
2022-09-15T00:01:13.843Z,70.82
2022-09-15T00:03:43.603Z,75.22
2022-09-15T00:06:14.821Z,84.45
2022-09-15T00:08:44.414Z,71.07
2022-09-15T00:11:18.441Z,79.00
2022-09-15T00:13:48.483Z,82.65
2022-09-15T00:16:21.060Z,73.45
2022-09-15T00:21:25.032Z,97.20
2022-09-15T00:23:54.990Z,81.28
2022-09-15T00:26:27.517Z,86.43
2022-09-15T00:28:57.827Z,87.57
2022-09-15T00:31:32.727Z,91.00
2022-09-15T00:34:04.193Z,89.35
2022-09-15T00:36:33.683Z,84.05
2022-09-15T00:39:02.929Z,75.85
2022-09-15T00:41:32.886Z,77.20
2022-09-15T00:44:04.269Z,73.30
2022-09-15T00:46:38.198Z,82.72
2022-09-15T00:49:15.387Z,77.80
2022-09-15T00:51:54.065Z,68.32
2022-09-15T00:54:28.274Z,69.57
2022-09-15T00:57:01.141Z,83.68
2022-09-15T00:59:35.118Z,95.82
2022-09-15T01:02:13.729Z,112.65
2022-09-15T01:04:43.154Z,110.50
2022-09-15T01:07:18.003Z,100.35
2022-09-15T01:09:54.513Z,87.30
2022-09-15T01:12:25.407Z,86.97
2022-09-15T01:14:54.683Z,91.47
2022-09-15T01:17:39.355Z,67.28
2022-09-15T01:20:55.558Z,99.55
2022-09-15T01:24:35.766Z,74.10
2022-09-15T01:27:41.690Z,87.05
2022-09-15T01:30:16.662Z,81.35
2022-09-15T01:33:22.519Z,74.65
2022-09-15T01:36:00.347Z,86.63
2022-09-15T01:38:55.810Z,67.95
2022-09-15T01:41:31.588Z,85.68
2022-09-15T01:44:07.713Z,85.07
2022-09-15T01:46:47.184Z,92.10
2022-09-15T01:49:21.293Z,115.00
2022-09-15T01:51:54.852Z,91.63
2022-09-15T01:54:30.886Z,104.22
2022-09-15T01:57:00.364Z,70.57
2022-09-15T01:59:29.939Z,99.90
2022-09-15T02:02:05.895Z,109.50
2022-09-15T02:04:41.937Z,81.03
2022-09-15T02:07:17.255Z,98.40
2022-09-15T02:09:52.396Z,107.93
2022-09-15T02:12:33.215Z,75.53
2022-09-15T02:15:08.777Z,99.35
2022-09-15T02:17:47.287Z,95.13
2022-09-15T02:20:23.865Z,82.93
2022-09-15T02:23:02.188Z,95.20
2022-09-15T02:25:36.082Z,94.53
2022-09-15T02:28:11.195Z,102.97
2022-09-15T02:30:44.200Z,81.03
2022-09-15T02:33:20.775Z,96.38
2022-09-15T02:35:51.950Z,88.85
2022-09-15T02:38:21.822Z,86.88
2022-09-15T02:40:51.155Z,75.55
2022-09-15T02:43:20.263Z,85.38
2022-09-15T02:45:49.750Z,84.38
2022-09-15T02:48:20.556Z,105.30
2022-09-15T02:50:49.724Z,94.43
2022-09-15T02:53:18.915Z,82.43
2022-09-15T02:55:47.997Z,71.35
2022-09-15T02:58:17.173Z,88.53
2022-09-15T03:00:46.365Z,116.55
2022-09-15T03:03:15.562Z,92.38
2022-09-15T03:05:46.087Z,94.22
2022-09-15T03:08:15.275Z,99.00
2022-09-15T03:10:44.443Z,106.75
2022-09-15T03:13:13.606Z,114.45
2022-09-15T03:15:43.251Z,112.78
2022-09-15T03:18:13.267Z,112.03
2022-09-15T03:20:42.433Z,88.63
2022-09-15T03:23:13.108Z,93.97
2022-09-15T03:25:42.232Z,96.72
2022-09-15T03:28:11.315Z,97.43
2022-09-15T03:30:40.660Z,78.25
2022-09-15T03:33:09.740Z,86.85
2022-09-15T03:35:39.471Z,89.50
2022-09-15T03:38:08.624Z,76.55
2022-09-15T03:40:39.226Z,87.63
2022-09-15T03:43:08.402Z,86.47
2022-09-15T03:45:38.025Z,66.43
2022-09-15T03:48:08.764Z,90.03
2022-09-15T03:50:37.892Z,75.45
2022-09-15T03:53:07.122Z,52.10
2022-09-15T03:55:36.329Z,85.20
2022-09-15T03:58:06.822Z,53.53
2022-09-15T04:00:36.221Z,53.92
2022-09-15T04:03:06.875Z,77.78
2022-09-15T04:05:36.798Z,27.92
2022-09-15T04:08:06.602Z,37.45
2022-09-15T04:10:39.006Z,45.83
2022-09-15T04:13:09.829Z,33.63
2022-09-15T04:15:38.985Z,67.68
2022-09-15T04:18:08.187Z,49.97
2022-09-15T04:20:40.759Z,51.40
2022-09-15T04:23:09.878Z,26.70
2022-09-15T04:25:39.003Z,29.35
2022-09-15T04:28:09.544Z,29.83
2022-09-15T04:30:38.790Z,35.40
2022-09-15T04:33:08.363Z,40.40
2022-09-15T04:35:37.653Z,41.20
2022-09-15T04:38:06.787Z,40.72
2022-09-15T04:40:35.950Z,26.63
2022-09-15T04:43:06.680Z,22.42
2022-09-15T04:45:37.220Z,26.00
2022-09-15T04:48:06.468Z,29.67
2022-09-15T04:50:35.666Z,23.88
2022-09-15T04:53:04.953Z,25.88
2022-09-15T04:55:34.286Z,27.42
2022-09-15T04:58:04.134Z,17.70
2022-09-15T05:00:43.672Z,28.05
2022-09-15T05:03:14.253Z,38.25
2022-09-15T05:05:43.530Z,27.05
2022-09-15T05:08:12.627Z,19.25
2022-09-15T05:10:41.741Z,19.95
2022-09-15T05:13:10.839Z,19.73
2022-09-15T05:15:41.530Z,27.17
2022-09-15T05:18:10.789Z,23.35
2022-09-15T05:20:40.078Z,23.25
2022-09-15T05:23:09.329Z,29.33
2022-09-15T05:25:38.853Z,21.45
2022-09-15T05:28:08.657Z,22.58
2022-09-15T05:30:44.547Z,27.73
2022-09-15T05:33:13.992Z,28.55
2022-09-15T05:35:52.690Z,26.38
2022-09-15T05:38:22.174Z,36.47
2022-09-15T05:40:51.826Z,22.08
2022-09-15T05:43:21.556Z,27.63
2022-09-15T05:45:57.531Z,25.58
2022-09-15T05:48:27.303Z,23.02
2022-09-15T05:50:58.327Z,25.00
2022-09-15T05:53:28.403Z,26.73
2022-09-15T05:55:58.605Z,25.00
2022-09-15T05:58:28.621Z,38.33
2022-09-15T06:01:05.329Z,23.05
2022-09-15T06:03:35.432Z,24.17
2022-09-15T06:06:06.490Z,27.92
2022-09-15T06:08:40.516Z,35.30
2022-09-15T06:11:16.279Z,23.65
2022-09-15T06:13:46.890Z,21.00
2022-09-15T06:16:20.644Z,41.63
2022-09-15T06:18:52.311Z,33.08
2022-09-15T06:21:24.353Z,24.95
2022-09-15T06:23:56.450Z,48.15
2022-09-15T06:26:26.842Z,27.65
2022-09-15T06:28:58.502Z,45.40
2022-09-15T06:31:32.995Z,34.00
2022-09-15T06:34:04.130Z,35.53
2022-09-15T06:36:34.105Z,44.90
2022-09-15T06:39:03.623Z,45.53
2022-09-15T06:41:58.332Z,46.28
2022-09-15T06:44:22.376Z,38.22
2022-09-15T06:46:52.912Z,55.03
2022-09-15T06:49:22.902Z,49.83
2022-09-15T06:51:52.620Z,57.92
2022-09-15T06:54:22.535Z,60.25
2022-09-15T06:56:53.097Z,55.80
2022-09-15T06:59:24.390Z,66.88
2022-09-15T07:01:56.200Z,46.25
2022-09-15T07:04:25.358Z,72.90
2022-09-15T07:06:54.576Z,70.13
2022-09-15T07:09:23.831Z,67.05
2022-09-15T07:11:52.946Z,80.60
2022-09-15T07:14:22.241Z,91.07
2022-09-15T07:16:51.448Z,97.85
2022-09-15T07:19:21.985Z,78.70
2022-09-15T07:21:52.897Z,90.07
2022-09-15T07:24:22.136Z,79.38
2022-09-15T07:26:52.119Z,86.80
2022-09-15T07:29:21.304Z,93.22
2022-09-15T07:31:50.813Z,92.75
2022-09-15T07:34:21.360Z,90.13
2022-09-15T07:36:50.882Z,91.18
2022-09-15T07:39:20.067Z,73.13
2022-09-15T07:41:49.188Z,87.70
2022-09-15T07:44:18.383Z,95.00
2022-09-15T07:46:47.508Z,94.10
2022-09-15T07:49:17.682Z,75.20
2022-09-15T07:51:48.296Z,88.60
2022-09-15T07:54:21.985Z,80.90
2022-09-15T07:56:52.128Z,71.20
2022-09-15T07:59:21.308Z,63.95
2022-09-15T08:01:51.323Z,60.63
2022-09-15T08:04:20.489Z,69.00
2022-09-15T08:06:52.760Z,70.00
2022-09-15T08:09:22.080Z,57.47
2022-09-15T08:11:51.188Z,56.20
2022-09-15T08:14:20.364Z,61.30
2022-09-15T08:16:49.629Z,75.82
2022-09-15T08:19:19.743Z,52.90
2022-09-15T08:21:50.652Z,56.25
2022-09-15T08:24:19.737Z,63.53
2022-09-15T08:26:48.868Z,85.97
2022-09-15T08:29:18.804Z,70.07
2022-09-15T08:31:48.753Z,111.68
2022-09-15T08:34:19.194Z,163.05
2022-09-15T08:36:48.305Z,119.68
2022-09-15T08:39:18.961Z,165.05
2022-09-15T08:41:51.682Z,152.48
2022-09-15T08:44:33.389Z,144.98
2022-09-15T08:47:11.416Z,131.90
2022-09-15T08:49:57.431Z,151.82
2022-09-15T08:52:34.681Z,81.97
2022-09-15T08:55:14.719Z,114.30
2022-09-15T08:57:45.028Z,93.18
2022-09-15T09:00:18.043Z,107.97
2022-09-15T09:03:14.658Z,130.95
2022-09-15T09:06:00.033Z,54.10
2022-09-15T09:09:13.491Z,77.32
2022-09-15T09:14:40.944Z,54.85
2022-09-15T09:20:33.471Z,42.00
2022-09-15T09:23:08.901Z,62.28
2022-09-15T09:25:38.853Z,63.58
2022-09-15T09:28:25.463Z,85.13
2022-09-15T09:30:56.155Z,68.30
2022-09-15T09:33:32.292Z,86.57
2022-09-15T09:36:02.533Z,106.07
2022-09-15T09:38:39.118Z,149.70
2022-09-15T09:41:14.894Z,142.27
2022-09-15T09:43:47.688Z,112.68
2022-09-15T09:46:20.387Z,162.43
2022-09-15T09:48:56.433Z,145.57
2022-09-15T09:51:35.997Z,138.20
2022-09-15T09:54:28.329Z,183.05
2022-09-15T09:57:19.154Z,145.02
2022-09-15T09:59:51.092Z,120.88
2022-09-15T10:02:22.942Z,136.50
2022-09-15T10:04:54.272Z,160.95
2022-09-15T10:07:27.242Z,125.80
2022-09-15T10:09:59.528Z,130.00
2022-09-15T10:12:33.285Z,136.98
2022-09-15T10:15:08.123Z,127.53
2022-09-15T10:17:44.077Z,144.95
2022-09-15T10:20:28.567Z,147.52
2022-09-15T10:23:07.173Z,132.68
2022-09-15T10:28:29.177Z,135.50
2022-09-15T10:31:05.460Z,123.20
2022-09-15T10:33:36.937Z,163.60
2022-09-15T10:36:13.034Z,139.15
2022-09-15T10:38:46.725Z,121.03
2022-09-15T10:41:29.199Z,142.65
2022-09-15T10:44:31.073Z,126.57
2022-09-15T10:47:14.005Z,131.10
2022-09-15T10:50:01.482Z,111.18
2022-09-15T10:52:43.626Z,115.82
2022-09-15T10:55:51.124Z,110.45
2022-09-15T10:58:41.070Z,179.50
2022-09-15T11:01:41.285Z,133.20
2022-09-15T11:05:10.399Z,103.43
2022-09-15T11:07:49.187Z,118.68
2022-09-15T11:10:26.504Z,141.50
2022-09-15T11:13:05.378Z,135.00
2022-09-15T11:15:56.729Z,128.38
2022-09-15T11:18:54.689Z,135.43
2022-09-15T11:21:31.173Z,118.72
2022-09-15T11:24:32.972Z,114.22
2022-09-15T11:27:12.543Z,85.80
2022-09-15T11:30:02.968Z,81.35
2022-09-15T11:32:42.662Z,148.13
2022-09-15T11:35:40.362Z,108.30
2022-09-15T11:38:29.650Z,86.85
2022-09-15T11:41:16.546Z,120.43
2022-09-15T11:44:00.246Z,100.15
2022-09-15T11:46:46.995Z,94.47
2022-09-15T11:49:21.917Z,121.03
2022-09-15T11:51:58.299Z,91.50
2022-09-15T11:54:38.828Z,78.22
2022-09-15T11:57:16.257Z,127.20
2022-09-15T11:59:53.149Z,114.78
2022-09-15T12:02:40.056Z,138.32
2022-09-15T12:05:15.168Z,107.93
2022-09-15T12:07:51.378Z,148.45
2022-09-15T12:10:27.846Z,132.27
2022-09-15T12:12:57.702Z,144.68
2022-09-15T12:15:28.333Z,144.65
2022-09-15T12:18:37.086Z,160.43
2022-09-15T12:21:13.109Z,116.20
2022-09-15T12:23:46.658Z,122.05
2022-09-15T12:26:21.504Z,111.03
2022-09-15T12:28:57.808Z,164.02
2022-09-15T12:31:36.841Z,150.48
2022-09-15T12:34:25.317Z,154.60
2022-09-15T12:36:56.691Z,126.03
2022-09-15T12:39:32.937Z,119.45
2022-09-15T12:42:21.653Z,133.23
2022-09-15T12:44:55.908Z,120.97
2022-09-15T12:47:39.434Z,142.23
2022-09-15T12:50:29.016Z,175.43
2022-09-15T12:53:02.337Z,152.35
2022-09-15T12:55:36.592Z,154.65
2022-09-15T12:58:16.493Z,175.75
2022-09-15T13:01:16.649Z,146.68
2022-09-15T13:04:24.170Z,167.60
2022-09-15T13:07:37.280Z,137.15
2022-09-15T13:10:35.871Z,139.15
2022-09-15T13:13:33.411Z,129.25
2022-09-15T13:16:03.766Z,148.57
2022-09-15T13:18:35.146Z,147.75
2022-09-15T13:21:13.941Z,157.93
2022-09-15T13:23:48.317Z,135.00
2022-09-15T13:26:24.403Z,143.20
2022-09-15T13:28:59.058Z,120.53
2022-09-15T13:31:40.227Z,149.55
2022-09-15T13:35:20.731Z,170.50
2022-09-15T13:38:31.598Z,152.38
2022-09-15T13:41:40.252Z,195.82
2022-09-15T13:44:55.794Z,225.38
2022-09-15T13:47:39.331Z,116.68
2022-09-15T13:50:18.300Z,159.98
2022-09-15T13:53:09.021Z,119.82
2022-09-15T13:55:39.704Z,142.27
2022-09-15T14:01:08.703Z,121.03
2022-09-15T14:03:45.575Z,127.30
2022-09-15T14:06:18.861Z,138.60
2022-09-15T14:08:53.653Z,128.32
2022-09-15T14:11:28.725Z,149.68
2022-09-15T14:14:00.748Z,115.00
2022-09-15T14:16:37.524Z,114.90
2022-09-15T14:19:34.108Z,116.45
2022-09-15T14:22:19.253Z,131.80
2022-09-15T14:24:48.872Z,107.57
2022-09-15T14:27:25.658Z,86.28
2022-09-15T14:29:58.223Z,104.07
2022-09-15T14:32:31.562Z,83.18
2022-09-15T14:35:05.585Z,89.38
2022-09-15T14:37:35.203Z,126.72
2022-09-15T14:40:23.968Z,136.45
2022-09-15T14:42:53.269Z,112.55
2022-09-15T14:48:18.985Z,104.17
2022-09-15T14:50:59.442Z,110.78
2022-09-15T14:53:31.551Z,96.78
2022-09-15T14:56:08.477Z,123.43
2022-09-15T14:58:43.290Z,84.10
2022-09-15T15:01:18.152Z,101.93
2022-09-15T15:03:57.307Z,136.40
2022-09-15T15:06:32.827Z,118.30
2022-09-15T15:09:07.655Z,115.05
2022-09-15T15:11:39.682Z,97.82
2022-09-15T15:14:12.557Z,128.63
2022-09-15T15:16:52.858Z,103.15
2022-09-15T15:19:36.315Z,110.28
2022-09-15T15:22:17.302Z,87.05
2022-09-15T15:24:50.100Z,91.57
2022-09-15T15:27:43.833Z,142.65
2022-09-15T15:30:47.130Z,116.57
2022-09-15T15:33:25.593Z,101.45
2022-09-15T15:36:08.971Z,130.85
2022-09-15T15:38:47.201Z,137.07
2022-09-15T15:41:23.221Z,127.13
2022-09-15T15:44:08.205Z,146.65
2022-09-15T15:46:53.319Z,139.68
2022-09-15T15:49:27.501Z,146.38
2022-09-15T15:51:59.639Z,138.80
2022-09-15T15:54:29.532Z,118.15
2022-09-15T15:57:23.323Z,158.77
2022-09-15T15:59:57.652Z,117.63
2022-09-15T16:02:28.569Z,128.30
2022-09-15T16:04:57.743Z,133.15
2022-09-15T16:07:33.129Z,162.90
2022-09-15T16:10:03.665Z,123.28
2022-09-15T16:12:34.810Z,135.40
2022-09-15T16:15:13.160Z,99.60
2022-09-15T16:17:46.013Z,130.27
2022-09-15T16:20:16.991Z,96.85
2022-09-15T16:22:47.534Z,155.93
2022-09-15T16:25:19.982Z,183.23
2022-09-15T16:27:49.124Z,117.00
2022-09-15T16:30:18.397Z,127.72
2022-09-15T16:32:47.488Z,111.03
2022-09-15T16:35:28.209Z,109.35
2022-09-15T16:37:58.902Z,156.65
2022-09-15T16:40:28.371Z,139.95
2022-09-15T16:42:57.573Z,132.57
2022-09-15T16:45:36.516Z,155.07
2022-09-15T16:48:09.220Z,135.93
2022-09-15T16:50:42.657Z,130.02
2022-09-15T16:53:18.992Z,139.55
2022-09-15T16:55:49.755Z,183.80
2022-09-15T16:58:22.248Z,142.23
2022-09-15T17:00:53.764Z,155.77
2022-09-15T17:03:25.698Z,138.10
2022-09-15T17:05:57.522Z,147.90
2022-09-15T17:08:30.588Z,173.60
2022-09-15T17:11:01.956Z,138.98
2022-09-15T17:13:33.590Z,162.23
2022-09-15T17:16:04.020Z,110.55
2022-09-15T17:18:33.415Z,127.32
2022-09-15T17:21:02.558Z,131.55
2022-09-15T17:23:38.105Z,164.68
2022-09-15T17:26:12.534Z,152.77
2022-09-15T17:28:42.320Z,163.13
2022-09-15T17:31:16.685Z,120.72
2022-09-15T17:33:46.782Z,127.53
2022-09-15T17:36:16.219Z,130.35
2022-09-15T17:38:48.955Z,134.93
2022-09-15T17:41:20.677Z,151.95
2022-09-15T17:43:50.004Z,121.25
2022-09-15T17:46:19.124Z,103.40
2022-09-15T17:48:48.523Z,113.13
2022-09-15T17:51:18.498Z,103.40
2022-09-15T17:53:49.255Z,103.15
2022-09-15T17:56:18.453Z,116.90
2022-09-15T17:58:47.611Z,94.32
2022-09-15T18:01:17.506Z,157.32
2022-09-15T18:03:47.168Z,106.10
2022-09-15T18:06:16.326Z,127.22
2022-09-15T18:08:45.937Z,102.13
2022-09-15T18:11:16.835Z,88.00
2022-09-15T18:13:46.096Z,95.25
2022-09-15T18:16:16.089Z,99.57
2022-09-15T18:18:45.385Z,102.25
2022-09-15T18:21:27.009Z,92.05
2022-09-15T18:23:56.175Z,63.60
2022-09-15T18:26:27.040Z,70.47
2022-09-15T18:28:56.400Z,111.30
2022-09-15T18:31:25.583Z,84.95
2022-09-15T18:33:54.938Z,102.00
2022-09-15T18:36:24.098Z,70.47
2022-09-15T18:38:53.338Z,87.90
2022-09-15T18:41:22.743Z,127.10
2022-09-15T18:43:53.288Z,74.93
2022-09-15T18:46:22.615Z,104.93
2022-09-15T18:48:51.785Z,94.40
2022-09-15T18:51:29.088Z,127.38
2022-09-15T18:54:04.401Z,123.38
2022-09-15T18:56:33.705Z,95.20
2022-09-15T18:59:04.355Z,75.07
2022-09-15T19:01:34.827Z,94.25
2022-09-15T19:04:04.404Z,75.88
2022-09-15T19:06:33.666Z,77.95
2022-09-15T19:09:02.889Z,71.30
2022-09-15T19:11:32.202Z,87.00
2022-09-15T19:14:03.232Z,66.50
2022-09-15T19:16:53.904Z,75.60
2022-09-15T19:19:22.498Z,67.35
2022-09-15T19:21:51.754Z,79.03
2022-09-15T19:24:21.433Z,77.20
2022-09-15T19:26:50.633Z,62.35
2022-09-15T19:29:21.244Z,72.30
2022-09-15T19:31:50.510Z,73.38
2022-09-15T19:34:19.806Z,64.07
2022-09-15T19:36:49.020Z,72.50
2022-09-15T19:39:18.335Z,68.15
2022-09-15T19:41:47.560Z,74.63
2022-09-15T19:44:17.258Z,69.40
2022-09-15T19:46:48.479Z,64.03
2022-09-15T19:49:17.799Z,70.03
2022-09-15T19:51:47.180Z,66.22
2022-09-15T19:54:16.375Z,70.43
2022-09-15T19:56:45.576Z,71.00
2022-09-15T19:59:14.824Z,79.60
2022-09-15T20:01:44.467Z,91.25
2022-09-15T20:04:15.867Z,72.25
2022-09-15T20:06:45.154Z,72.57
2022-09-15T20:09:14.376Z,82.35
2022-09-15T20:11:43.694Z,64.30
2022-09-15T20:14:12.907Z,70.95
2022-09-15T20:16:42.599Z,73.57
2022-09-15T20:19:11.890Z,78.70
2022-09-15T20:21:51.343Z,78.07
2022-09-15T20:24:21.963Z,67.03
2022-09-15T20:26:51.579Z,67.93
2022-09-15T20:29:21.604Z,71.03
2022-09-15T20:31:50.771Z,68.65
2022-09-15T20:34:20.138Z,65.28
2022-09-15T20:36:50.988Z,61.92
2022-09-15T20:39:22.473Z,69.38
2022-09-15T20:41:51.878Z,75.85
2022-09-15T20:44:20.995Z,62.63
2022-09-15T20:46:50.221Z,70.63
2022-09-15T20:49:19.800Z,70.95
2022-09-15T20:51:51.745Z,107.93
2022-09-15T20:54:21.068Z,67.30
2022-09-15T20:56:50.252Z,59.97
2022-09-15T20:59:19.587Z,103.90
2022-09-15T21:01:49.140Z,71.15
2022-09-15T21:04:19.120Z,70.50
2022-09-15T21:06:50.046Z,83.13
2022-09-15T21:09:19.288Z,94.60
2022-09-15T21:11:53.277Z,75.97
2022-09-15T21:14:22.948Z,66.68
2022-09-15T21:16:52.208Z,60.00
2022-09-15T21:19:21.450Z,96.75
2022-09-15T21:21:52.055Z,67.13
2022-09-15T21:24:24.552Z,60.00
2022-09-15T21:27:11.291Z,71.03
2022-09-15T21:29:41.015Z,72.80
2022-09-15T21:32:10.233Z,91.50
2022-09-15T21:34:39.570Z,91.30
2022-09-15T21:37:10.444Z,91.28
2022-09-15T21:39:39.704Z,95.13
2022-09-15T21:42:10.286Z,62.88
2022-09-15T21:44:39.457Z,73.50
2022-09-15T21:47:09.048Z,69.50
2022-09-15T21:49:38.313Z,65.80
2022-09-15T21:52:11.452Z,72.35
2022-09-15T21:54:40.739Z,74.65
2022-09-15T21:57:10.397Z,78.13
2022-09-15T21:59:39.773Z,73.18
2022-09-15T22:02:11.744Z,94.15
2022-09-15T22:04:41.045Z,94.20
2022-09-15T22:07:11.764Z,92.32
2022-09-15T22:09:41.043Z,67.38
2022-09-15T22:12:10.710Z,83.00
2022-09-15T22:14:39.936Z,83.05
2022-09-15T22:17:09.203Z,95.40
2022-09-15T22:19:38.379Z,107.55
2022-09-15T22:22:08.269Z,84.15
2022-09-15T22:24:39.182Z,78.70
2022-09-15T22:27:08.412Z,82.47
2022-09-15T22:29:37.565Z,94.50
2022-09-15T22:32:09.536Z,78.60
2022-09-15T22:34:38.949Z,102.05
2022-09-15T22:37:08.214Z,93.78
2022-09-15T22:39:58.144Z,106.15
2022-09-15T22:42:28.574Z,83.43
2022-09-15T22:45:01.037Z,87.03
2022-09-15T22:47:30.223Z,91.18
2022-09-15T22:49:59.885Z,89.72
2022-09-15T22:52:29.089Z,114.60
2022-09-15T22:55:04.672Z,105.10
2022-09-15T22:57:37.333Z,119.32
2022-09-15T23:00:08.664Z,71.80
2022-09-15T23:02:40.561Z,96.85
2022-09-15T23:05:10.718Z,115.33
2022-09-15T23:07:40.003Z,86.57
2022-09-15T23:10:15.777Z,94.13
2022-09-15T23:12:45.399Z,116.80
2022-09-15T23:15:15.089Z,114.40
2022-09-15T23:17:44.354Z,135.80
2022-09-15T23:20:19.945Z,97.38
2022-09-15T23:22:49.078Z,97.95
2022-09-15T23:25:19.767Z,86.60
2022-09-15T23:27:48.910Z,104.75
2022-09-15T23:30:18.836Z,111.22
2022-09-15T23:32:48.027Z,101.78
2022-09-15T23:35:17.254Z,129.02
2022-09-15T23:37:46.419Z,99.70
2022-09-15T23:40:15.904Z,96.72
2022-09-15T23:42:46.579Z,100.65
2022-09-15T23:45:15.919Z,104.65
2022-09-15T23:47:45.116Z,127.15
2022-09-15T23:50:14.254Z,110.38
2022-09-15T23:52:43.361Z,100.10
2022-09-15T23:55:12.812Z,84.50
2022-09-15T23:57:42.073Z,100.38
